createdAt,value
2019-04-07T00:03:51.668Z,37.98
2019-04-07T00:07:56.704Z,36.07
2019-04-07T00:12:02.412Z,44.43
2019-04-07T00:16:08.404Z,32.88
2019-04-07T00:20:12.638Z,33.58
2019-04-07T00:24:16.651Z,31.87
2019-04-07T00:28:20.490Z,30.17
2019-04-07T00:32:25.000Z,36.13
2019-04-07T00:36:28.763Z,36.13
2019-04-07T00:40:32.375Z,46.05
2019-04-07T00:44:36.091Z,45.03
2019-04-07T00:48:39.678Z,35.92
2019-04-07T00:52:43.645Z,38.00
2019-04-07T00:56:47.272Z,39.42
2019-04-07T01:00:50.843Z,50.67
2019-04-07T01:04:54.871Z,52.83
2019-04-07T01:08:59.155Z,51.30
2019-04-07T01:13:02.876Z,41.42
2019-04-07T01:17:07.067Z,47.93
2019-04-07T01:21:10.740Z,51.28
2019-04-07T01:25:14.871Z,43.55
2019-04-07T01:29:18.513Z,56.35
2019-04-07T01:33:22.120Z,41.68
2019-04-07T01:37:26.241Z,51.13
2019-04-07T01:41:31.755Z,45.88
2019-04-07T01:45:52.638Z,43.73
2019-04-07T01:49:57.885Z,32.08
2019-04-07T01:54:05.535Z,31.50
2019-04-07T01:58:27.332Z,27.67
2019-04-07T02:02:32.583Z,33.58
2019-04-07T02:06:40.920Z,34.47
2019-04-07T02:10:49.569Z,33.15
2019-04-07T02:15:03.527Z,33.13
2019-04-07T02:19:11.476Z,34.75
2019-04-07T02:23:17.435Z,34.95
2019-04-07T02:27:23.051Z,33.75
2019-04-07T02:31:31.918Z,36.28
2019-04-07T02:35:43.488Z,33.42
2019-04-07T02:39:58.721Z,32.58
2019-04-07T02:44:07.590Z,29.18
2019-04-07T02:48:22.151Z,24.95
2019-04-07T02:52:39.080Z,25.70
2019-04-07T02:57:03.571Z,25.75
2019-04-07T03:01:26.471Z,27.67
2019-04-07T03:05:42.268Z,22.77
2019-04-07T03:09:47.588Z,33.47
2019-04-07T03:13:55.479Z,35.50
2019-04-07T03:18:12.857Z,31.52
2019-04-07T03:22:20.810Z,25.08
2019-04-07T03:26:32.387Z,24.57
2019-04-07T03:30:54.694Z,27.50
2019-04-07T03:35:14.783Z,23.47
2019-04-07T03:39:34.647Z,25.92
2019-04-07T03:43:57.940Z,29.60
2019-04-07T03:48:07.040Z,32.98
2019-04-07T03:52:12.672Z,28.87
2019-04-07T03:56:18.101Z,31.23
2019-04-07T04:01:05.097Z,32.95
2019-04-07T04:05:10.714Z,25.32
2019-04-07T04:09:32.466Z,24.57
2019-04-07T04:13:38.000Z,22.58
2019-04-07T04:21:45.590Z,32.53
2019-04-07T04:25:49.163Z,29.17
2019-04-07T04:29:53.410Z,23.35
2019-04-07T04:33:57.988Z,19.85
2019-04-07T04:38:01.965Z,25.35
2019-04-07T04:42:05.777Z,24.27
2019-04-07T04:46:11.002Z,22.15
2019-04-07T04:50:14.907Z,17.15
2019-04-07T04:54:19.325Z,20.75
2019-04-07T04:58:23.072Z,25.30
2019-04-07T05:02:27.491Z,37.15
2019-04-07T05:06:31.356Z,20.57
2019-04-07T05:10:34.945Z,24.67
2019-04-07T05:14:38.821Z,24.32
2019-04-07T05:18:42.743Z,40.15
2019-04-07T05:23:07.817Z,29.52
2019-04-07T05:27:11.482Z,20.27
2019-04-07T05:31:15.063Z,32.60
2019-04-07T05:35:18.811Z,23.92
2019-04-07T05:39:22.979Z,32.45
2019-04-07T05:43:27.320Z,31.00
2019-04-07T05:47:31.495Z,31.68
2019-04-07T05:51:35.104Z,33.05
2019-04-07T05:55:39.310Z,46.20
2019-04-07T05:59:43.641Z,46.98
2019-04-07T06:03:47.893Z,46.83
2019-04-07T06:07:51.566Z,48.70
2019-04-07T06:11:55.118Z,47.83
2019-04-07T06:15:58.774Z,44.90
2019-04-07T06:20:02.702Z,42.55
2019-04-07T06:24:06.342Z,49.47
2019-04-07T06:28:09.919Z,47.93
2019-04-07T06:32:13.499Z,47.93
2019-04-07T06:36:19.422Z,48.00
2019-04-07T06:40:23.068Z,48.30
2019-04-07T06:44:26.920Z,45.75
2019-04-07T06:48:30.612Z,48.75
2019-04-07T06:52:44.832Z,47.62
2019-04-07T06:56:53.799Z,42.37
2019-04-07T07:01:15.646Z,43.40
2019-04-07T07:05:37.378Z,45.25
2019-04-07T07:09:45.881Z,36.97
2019-04-07T07:14:30.029Z,40.38
2019-04-07T07:18:33.923Z,38.50
2019-04-07T07:22:41.515Z,43.00
2019-04-07T07:26:44.985Z,43.73
2019-04-07T07:30:51.856Z,38.63
2019-04-07T07:34:54.162Z,40.03
2019-04-07T07:39:01.670Z,45.75
2019-04-07T07:43:03.473Z,36.27
2019-04-07T07:47:07.119Z,41.40
2019-04-07T07:51:12.929Z,46.53
2019-04-07T07:55:15.956Z,44.55
2019-04-07T07:59:20.069Z,45.75
2019-04-07T08:03:23.954Z,43.50
2019-04-07T08:07:28.100Z,32.40
2019-04-07T08:11:34.398Z,39.95
2019-04-07T08:15:37.696Z,38.20
2019-04-07T08:19:44.132Z,38.20
2019-04-07T08:23:47.132Z,39.70
2019-04-07T08:27:50.989Z,34.38
2019-04-07T08:31:55.426Z,36.58
2019-04-07T08:35:59.071Z,33.55
2019-04-07T08:40:07.124Z,35.07
2019-04-07T08:44:08.255Z,32.87
2019-04-07T08:48:11.901Z,34.67
2019-04-07T08:52:16.219Z,37.47
2019-04-07T08:56:20.098Z,36.73
2019-04-07T09:00:26.099Z,31.05
2019-04-07T09:04:29.851Z,37.05
2019-04-07T09:08:36.114Z,30.52
2019-04-07T09:12:39.250Z,30.97
2019-04-07T09:17:00.724Z,32.00
2019-04-07T09:21:33.664Z,34.73
2019-04-07T09:25:46.580Z,35.95
2019-04-07T09:30:06.055Z,31.87
2019-04-07T09:34:21.158Z,30.02
2019-04-07T09:38:29.959Z,22.27
2019-04-07T09:42:47.007Z,30.20
2019-04-07T09:46:53.043Z,31.68
2019-04-07T09:59:39.718Z,21.57
2019-04-07T10:03:44.991Z,22.55
2019-04-07T10:07:59.455Z,29.98
2019-04-07T10:12:10.866Z,21.27
2019-04-07T10:16:16.523Z,23.80
2019-04-07T10:20:23.121Z,24.92
2019-04-07T10:24:47.175Z,22.82
2019-04-07T10:28:55.337Z,23.07
2019-04-07T10:33:16.935Z,22.77
2019-04-07T10:37:38.944Z,23.98
2019-04-07T10:41:56.557Z,22.45
2019-04-07T10:46:11.209Z,25.15
2019-04-07T10:50:25.754Z,25.08
2019-04-07T10:54:40.502Z,16.60
2019-04-07T10:59:01.972Z,18.27
2019-04-07T11:03:07.227Z,21.45
2019-04-07T11:07:12.962Z,22.27
2019-04-07T11:11:21.386Z,19.62
2019-04-07T11:15:50.971Z,21.45
2019-04-07T11:20:13.336Z,21.07
2019-04-07T11:24:24.419Z,18.35
2019-04-07T11:28:35.426Z,21.27
2019-04-07T11:32:41.520Z,16.12
2019-04-07T11:36:52.843Z,16.95
2019-04-07T11:41:04.321Z,16.70
2019-04-07T11:45:13.597Z,16.42
2019-04-07T11:49:22.968Z,21.33
2019-04-07T11:53:31.858Z,15.08
2019-04-07T11:57:43.269Z,17.80
2019-04-07T12:02:03.723Z,18.43
2019-04-07T12:06:11.621Z,19.48
2019-04-07T12:10:20.318Z,16.15
2019-04-07T12:14:28.792Z,19.73
2019-04-07T12:18:37.130Z,20.08
2019-04-07T12:22:51.163Z,21.42
2019-04-07T12:27:15.134Z,15.25
2019-04-07T12:31:26.914Z,18.45
2019-04-07T12:35:33.943Z,15.25
2019-04-07T12:39:42.039Z,18.25
2019-04-07T12:43:59.529Z,17.95
2019-04-07T12:48:05.845Z,16.90
2019-04-07T12:52:26.198Z,17.12
2019-04-07T12:56:36.416Z,14.47
2019-04-07T13:00:55.697Z,12.94
2019-04-07T13:05:03.672Z,16.17
2019-04-07T13:09:11.709Z,16.93
2019-04-07T13:13:26.814Z,17.98
2019-04-07T13:17:42.119Z,16.93
2019-04-07T13:22:05.300Z,17.80
2019-04-07T13:26:10.550Z,14.23
2019-04-07T13:30:16.985Z,44.57
2019-04-07T13:34:22.348Z,18.55
2019-04-07T13:38:28.258Z,12.70
2019-04-07T13:42:36.820Z,16.40
2019-04-07T13:46:42.298Z,16.70
2019-04-07T13:51:04.254Z,13.97
2019-04-07T13:55:14.112Z,18.42
2019-04-07T13:59:34.806Z,17.07
2019-04-07T14:03:45.976Z,19.07
2019-04-07T14:08:08.111Z,15.10
2019-04-07T14:12:22.733Z,18.95
2019-04-07T14:16:31.316Z,12.13
2019-04-07T14:20:42.491Z,12.58
2019-04-07T14:24:48.322Z,13.78
2019-04-07T14:29:11.993Z,15.58
2019-04-07T14:33:30.671Z,16.07
2019-04-07T14:37:38.720Z,13.13
2019-04-07T14:41:43.987Z,14.73
2019-04-07T14:45:52.701Z,16.20
2019-04-07T14:49:57.999Z,17.67
2019-04-07T14:54:09.928Z,16.97
2019-04-07T14:58:32.402Z,14.70
2019-04-07T15:02:36.513Z,14.80
2019-04-07T15:06:40.546Z,17.57
2019-04-07T15:10:48.422Z,15.98
2019-04-07T15:14:52.642Z,15.28
2019-04-07T15:18:56.602Z,16.10
2019-04-07T15:23:01.586Z,17.50
2019-04-07T15:27:05.941Z,23.27
2019-04-07T15:31:10.343Z,24.97
2019-04-07T15:35:15.491Z,13.20
2019-04-07T15:39:20.382Z,17.87
2019-04-07T15:43:24.321Z,13.13
2019-04-07T15:47:28.729Z,14.78
2019-04-07T15:51:35.123Z,15.70
2019-04-07T15:55:47.625Z,15.55
2019-04-07T15:59:43.306Z,13.15
2019-04-07T16:03:50.541Z,14.78
2019-04-07T16:07:54.396Z,14.30
2019-04-07T16:11:59.071Z,14.80
2019-04-07T16:16:02.775Z,13.70
2019-04-07T16:20:19.841Z,14.98
2019-04-07T16:24:14.848Z,15.90
2019-04-07T16:28:18.669Z,16.87
2019-04-07T16:32:22.252Z,15.83
2019-04-07T16:36:26.671Z,21.15
2019-04-07T16:40:30.295Z,17.05
2019-04-07T16:44:36.356Z,15.18
2019-04-07T16:48:40.260Z,13.50
2019-04-07T16:52:44.318Z,19.05
2019-04-07T16:56:50.767Z,16.52
2019-04-07T17:00:53.650Z,14.93
2019-04-07T17:04:57.330Z,19.93
2019-04-07T17:09:02.358Z,19.23
2019-04-07T17:13:17.848Z,20.80
2019-04-07T17:17:16.444Z,20.23
2019-04-07T17:21:18.671Z,22.73
2019-04-07T17:25:22.904Z,15.83
2019-04-07T17:29:28.583Z,12.43
2019-04-07T17:33:35.167Z,19.23
2019-04-07T17:37:37.458Z,16.82
2019-04-07T17:41:41.639Z,14.60
2019-04-07T17:45:52.116Z,16.10
2019-04-07T17:49:59.467Z,18.52
2019-04-07T17:54:07.916Z,20.48
2019-04-07T17:58:22.543Z,16.17
2019-04-07T18:02:33.836Z,18.27
2019-04-07T18:06:48.180Z,16.48
2019-04-07T18:11:09.903Z,19.23
2019-04-07T18:15:18.783Z,19.12
2019-04-07T18:19:36.323Z,25.37
2019-04-07T18:23:48.404Z,15.70
2019-04-07T18:28:03.132Z,27.27
2019-04-07T18:32:27.470Z,18.50
2019-04-07T18:36:49.207Z,20.88
2019-04-07T18:41:00.366Z,21.87
2019-04-07T18:45:16.759Z,27.32
2019-04-07T18:49:39.321Z,23.62
2019-04-07T18:53:57.645Z,27.10
2019-04-07T18:58:18.754Z,30.07
2019-04-07T19:02:24.801Z,26.07
2019-04-07T19:06:30.202Z,30.17
2019-04-07T19:10:53.215Z,33.13
2019-04-07T19:15:04.774Z,38.13
2019-04-07T19:19:22.354Z,35.55
2019-04-07T19:23:46.137Z,30.92
2019-04-07T19:27:59.990Z,30.60
2019-04-07T19:32:19.919Z,34.20
2019-04-07T19:36:42.796Z,29.10
2019-04-07T19:40:48.323Z,33.90
2019-04-07T19:45:09.621Z,39.00
2019-04-07T19:49:20.165Z,36.23
2019-04-07T19:53:22.469Z,43.73
2019-04-07T19:57:44.911Z,35.35
2019-04-07T20:02:08.460Z,35.65
2019-04-07T20:06:17.012Z,39.78
2019-04-07T20:10:25.395Z,39.63
2019-04-07T20:14:49.278Z,35.65
2019-04-07T20:18:54.669Z,37.70
2019-04-07T20:23:04.293Z,35.63
2019-04-07T20:27:12.499Z,44.93
2019-04-07T20:31:23.904Z,39.83
2019-04-07T20:35:34.946Z,34.98
2019-04-07T20:39:46.194Z,34.80
2019-04-07T20:44:07.587Z,31.05
2019-04-07T20:48:13.609Z,38.55
2019-04-07T20:56:51.905Z,37.67
2019-04-07T21:01:02.139Z,31.60
2019-04-07T21:05:06.943Z,40.75
2019-04-07T21:09:23.847Z,45.83
2019-04-07T21:13:44.257Z,33.38
2019-04-07T21:17:52.543Z,42.75
2019-04-07T21:22:03.536Z,42.27
2019-04-07T21:26:14.303Z,45.13
2019-04-07T21:30:25.316Z,35.48
2019-04-07T21:34:33.520Z,38.10
2019-04-07T21:38:41.731Z,31.55
2019-04-07T21:42:53.087Z,30.62
2019-04-07T21:47:00.010Z,35.68
2019-04-07T21:51:10.725Z,28.17
2019-04-07T21:55:31.255Z,28.45
2019-04-07T21:59:45.849Z,23.10
2019-04-07T22:03:51.110Z,32.33
2019-04-07T22:08:03.699Z,34.13
2019-04-07T22:12:04.438Z,29.52
2019-04-07T22:16:08.194Z,35.23
2019-04-07T22:20:14.783Z,18.40
2019-04-07T22:24:17.343Z,20.08
2019-04-07T22:28:21.171Z,22.32
2019-04-07T22:32:24.770Z,27.25
2019-04-07T22:36:29.344Z,29.85
2019-04-07T22:40:34.236Z,28.75
2019-04-07T22:44:38.364Z,27.40
2019-04-07T22:48:43.828Z,26.77
2019-04-07T22:52:50.603Z,25.37
2019-04-07T22:56:52.952Z,26.05
2019-04-07T23:00:56.703Z,21.23
2019-04-07T23:05:00.826Z,27.82
2019-04-07T23:09:07.815Z,27.20
2019-04-07T23:13:11.575Z,24.18
2019-04-07T23:17:15.459Z,28.00
2019-04-07T23:21:19.304Z,29.02
2019-04-07T23:25:23.285Z,34.50
2019-04-07T23:29:26.936Z,39.30
2019-04-07T23:33:30.542Z,23.60
2019-04-07T23:37:34.875Z,26.35
2019-04-07T23:41:39.365Z,26.53
2019-04-07T23:45:43.008Z,26.52
2019-04-07T23:49:46.864Z,25.15
2019-04-07T23:54:09.106Z,26.35
2019-04-07T23:58:13.226Z,31.97
